Time;durP1;ratioP1;P1;durP2;ratioP2;P2;SDS_P1;SDS_P2;PMS_P1;PMS_P2;Temp;Humidity;BMP_temperature;BMP_pressure;BME280_temperature;BME280_humidity;BME280_pressure;Samples;Min_cycle;Max_cycle;Signal;HPM_P1;HPM_P2
2021/09/04 00:00:14;;;;;;;8.1;6.2;;;;;;;;;;;;;
2021/09/04 00:02:39;;;;;;;9.9;6.8;;;;;;;;;;;;;
2021/09/04 00:05:04;;;;;;;8.3;6.2;;;;;;;;;;;;;
2021/09/04 00:07:30;;;;;;;8.1;6.4;;;;;;;;;;;;;
2021/09/04 00:09:54;;;;;;;8.4;6.1;;;;;;;;;;;;;
2021/09/04 00:12:19;;;;;;;9.1;7.4;;;;;;;;;;;;;
2021/09/04 00:14:44;;;;;;;9.5;6.7;;;;;;;;;;;;;
2021/09/04 00:17:09;;;;;;;10.8;6.8;;;;;;;;;;;;;
2021/09/04 00:19:35;;;;;;;8.5;6.2;;;;;;;;;;;;;
2021/09/04 00:22:00;;;;;;;8.6;6.2;;;;;;;;;;;;;
2021/09/04 00:24:25;;;;;;;7.7;5.9;;;;;;;;;;;;;
2021/09/04 00:26:50;;;;;;;9.6;6.5;;;;;;;;;;;;;
2021/09/04 00:29:15;;;;;;;7.9;6.1;;;;;;;;;;;;;
2021/09/04 00:31:41;;;;;;;9.6;6.7;;;;;;;;;;;;;
2021/09/04 00:34:06;;;;;;;10.9;6.5;;;;;;;;;;;;;
2021/09/04 00:36:31;;;;;;;9.9;6.2;;;;;;;;;;;;;
2021/09/04 00:38:56;;;;;;;7.7;6.3;;;;;;;;;;;;;
2021/09/04 00:41:21;;;;;;;9;6.7;;;;;;;;;;;;;
2021/09/04 00:43:46;;;;;;;8.5;6.1;;;;;;;;;;;;;
2021/09/04 00:46:11;;;;;;;8;6.1;;;;;;;;;;;;;
2021/09/04 00:48:37;;;;;;;9;6.4;;;;;;;;;;;;;
2021/09/04 00:51:02;;;;;;;9;6.1;;;;;;;;;;;;;
2021/09/04 00:53:27;;;;;;;8.7;6.2;;;;;;;;;;;;;
2021/09/04 00:55:52;;;;;;;7.7;5.6;;;;;;;;;;;;;
2021/09/04 00:58:18;;;;;;;7.4;5.9;;;;;;;;;;;;;
2021/09/04 01:00:42;;;;;;;8.2;6.3;;;;;;;;;;;;;
2021/09/04 01:03:07;;;;;;;7.9;6.3;;;;;;;;;;;;;
2021/09/04 01:05:37;;;;;;;7.9;5.9;;;;;;;;;;;;;
2021/09/04 01:08:02;;;;;;;8.3;6;;;;;;;;;;;;;
2021/09/04 01:10:28;;;;;;;7.3;5.7;;;;;;;;;;;;;
2021/09/04 01:12:52;;;;;;;7.5;6;;;;;;;;;;;;;
2021/09/04 01:15:19;;;;;;;8.4;5.9;;;;;;;;;;;;;
2021/09/04 01:17:43;;;;;;;7.7;6.2;;;;;;;;;;;;;
2021/09/04 01:20:08;;;;;;;8.5;6.3;;;;;;;;;;;;;
2021/09/04 01:22:33;;;;;;;8.5;6.4;;;;;;;;;;;;;
2021/09/04 01:24:58;;;;;;;7.3;5.7;;;;;;;;;;;;;
2021/09/04 01:27:23;;;;;;;7;5.8;;;;;;;;;;;;;
2021/09/04 01:29:48;;;;;;;8.4;6.3;;;;;;;;;;;;;
2021/09/04 01:32:13;;;;;;;8.3;6.1;;;;;;;;;;;;;
2021/09/04 01:34:38;;;;;;;8.6;6.3;;;;;;;;;;;;;
2021/09/04 01:37:04;;;;;;;7.5;5.9;;;;;;;;;;;;;
2021/09/04 01:39:29;;;;;;;8;6.1;;;;;;;;;;;;;
2021/09/04 01:41:54;;;;;;;7.8;6;;;;;;;;;;;;;
2021/09/04 01:44:19;;;;;;;7.9;5.6;;;;;;;;;;;;;
2021/09/04 01:46:44;;;;;;;9.3;6.6;;;;;;;;;;;;;
2021/09/04 01:49:09;;;;;;;7.1;6.1;;;;;;;;;;;;;
2021/09/04 01:51:34;;;;;;;9.2;6.1;;;;;;;;;;;;;
2021/09/04 01:53:59;;;;;;;7.3;5.7;;;;;;;;;;;;;
2021/09/04 01:56:24;;;;;;;7.6;5.8;;;;;;;;;;;;;
2021/09/04 01:58:49;;;;;;;7.4;6.2;;;;;;;;;;;;;
2021/09/04 02:01:15;;;;;;;8.4;6.4;;;;;;;;;;;;;
2021/09/04 02:03:40;;;;;;;7.4;5.9;;;;;;;;;;;;;
2021/09/04 02:06:05;;;;;;;11.1;5.7;;;;;;;;;;;;;
2021/09/04 02:08:30;;;;;;;8.1;5.9;;;;;;;;;;;;;
2021/09/04 02:10:55;;;;;;;7.5;5.5;;;;;;;;;;;;;
2021/09/04 02:13:20;;;;;;;8;5.7;;;;;;;;;;;;;
2021/09/04 02:15:45;;;;;;;7;6.1;;;;;;;;;;;;;
2021/09/04 02:18:10;;;;;;;7.3;6;;;;;;;;;;;;;
2021/09/04 02:20:36;;;;;;;8.3;6.3;;;;;;;;;;;;;
2021/09/04 02:23:01;;;;;;;8;6;;;;;;;;;;;;;
2021/09/04 02:25:26;;;;;;;6.7;5.6;;;;;;;;;;;;;
2021/09/04 02:27:51;;;;;;;7.7;6;;;;;;;;;;;;;
2021/09/04 02:30:16;;;;;;;7.4;6.3;;;;;;;;;;;;;
2021/09/04 02:32:41;;;;;;;6.9;5.7;;;;;;;;;;;;;
2021/09/04 02:35:06;;;;;;;7.3;5.5;;;;;;;;;;;;;
2021/09/04 02:37:31;;;;;;;7.6;6.2;;;;;;;;;;;;;
2021/09/04 02:39:57;;;;;;;7.8;6.1;;;;;;;;;;;;;
2021/09/04 02:42:22;;;;;;;7.3;5.4;;;;;;;;;;;;;
2021/09/04 02:44:47;;;;;;;6.9;5.8;;;;;;;;;;;;;
2021/09/04 02:47:12;;;;;;;7.6;5.6;;;;;;;;;;;;;
2021/09/04 02:49:37;;;;;;;7.9;5.7;;;;;;;;;;;;;
2021/09/04 02:52:02;;;;;;;7.6;5.9;;;;;;;;;;;;;
2021/09/04 02:54:27;;;;;;;7.4;5.8;;;;;;;;;;;;;
2021/09/04 02:56:52;;;;;;;6.7;5.1;;;;;;;;;;;;;
2021/09/04 02:59:17;;;;;;;7.1;5.8;;;;;;;;;;;;;
2021/09/04 03:01:43;;;;;;;6.5;5.3;;;;;;;;;;;;;
2021/09/04 03:04:08;;;;;;;7.2;5.5;;;;;;;;;;;;;
2021/09/04 03:06:33;;;;;;;6.8;5.5;;;;;;;;;;;;;
2021/09/04 03:08:58;;;;;;;6.4;5.4;;;;;;;;;;;;;
2021/09/04 03:11:23;;;;;;;7.7;5.6;;;;;;;;;;;;;
2021/09/04 03:13:48;;;;;;;6.6;5.3;;;;;;;;;;;;;
2021/09/04 03:16:13;;;;;;;7.3;6;;;;;;;;;;;;;
2021/09/04 03:18:38;;;;;;;8.1;6.2;;;;;;;;;;;;;
2021/09/04 03:21:03;;;;;;;6.9;6;;;;;;;;;;;;;
2021/09/04 03:23:28;;;;;;;8;5.6;;;;;;;;;;;;;
2021/09/04 03:25:53;;;;;;;7.4;5.8;;;;;;;;;;;;;
2021/09/04 03:28:19;;;;;;;7.4;5.9;;;;;;;;;;;;;
2021/09/04 03:30:44;;;;;;;7.2;5.9;;;;;;;;;;;;;
2021/09/04 03:33:09;;;;;;;7.9;5.9;;;;;;;;;;;;;
2021/09/04 03:35:34;;;;;;;7.8;6;;;;;;;;;;;;;
2021/09/04 03:37:59;;;;;;;8;6.3;;;;;;;;;;;;;
2021/09/04 03:40:24;;;;;;;7.6;5.7;;;;;;;;;;;;;
2021/09/04 03:42:49;;;;;;;7.1;5.9;;;;;;;;;;;;;
2021/09/04 03:45:15;;;;;;;7.6;5.6;;;;;;;;;;;;;
2021/09/04 03:47:40;;;;;;;7.3;5.5;;;;;;;;;;;;;
2021/09/04 03:50:05;;;;;;;8.2;5.8;;;;;;;;;;;;;
2021/09/04 03:52:30;;;;;;;7.9;6;;;;;;;;;;;;;
2021/09/04 03:54:55;;;;;;;7.8;5.5;;;;;;;;;;;;;
2021/09/04 03:57:20;;;;;;;7.5;5.7;;;;;;;;;;;;;
2021/09/04 03:59:45;;;;;;;8.4;6.1;;;;;;;;;;;;;
2021/09/04 04:02:50;;;;;;;8;6.1;;;;;;;12.67;94.28223;938.5363;;;;
2021/09/04 04:05:58;;;;;;;6.4;5.6;;;;;;;12.51;95.68066;938.6244;;;;
2021/09/04 04:08:23;;;;;;;8.3;5.7;;;;;;;12.6;95.59766;938.6509;;;;
2021/09/04 04:10:50;;;;;;;8.5;6;;;;;;;12.53;95.9834;938.6483;;;;
2021/09/04 04:13:15;;;;;;;8.1;6;;;;;;;12.57;95.71777;938.6428;;;;
2021/09/04 04:15:41;;;;;;;7.1;5.6;;;;;;;12.55;95.25293;938.5804;;;;
2021/09/04 04:18:06;;;;;;;8.4;6;;;;;;;12.58;94.47852;938.6077;;;;
2021/09/04 04:20:33;;;;;;;9;6.7;;;;;;;12.63;93.94043;938.5985;;;;
2021/09/04 04:22:58;;;;;;;8.6;6.3;;;;;;;12.51;94.85352;938.665;;;;
2021/09/04 04:25:23;;;;;;;8.3;6.5;;;;;;;12.54;95.13672;938.6547;;;;
2021/09/04 04:27:48;;;;;;;8.6;6.2;;;;;;;12.59;94.35645;938.6317;;;;
2021/09/04 04:30:13;;;;;;;9.9;6.3;;;;;;;12.61;93.60352;938.5942;;;;
2021/09/04 04:32:38;;;;;;;8.3;6;;;;;;;12.63;93.11426;938.5793;;;;
2021/09/04 04:35:03;;;;;;;7.4;5.8;;;;;;;12.6;92.94727;938.5686;;;;
2021/09/04 04:37:29;;;;;;;7.3;6;;;;;;;12.51;92.8457;938.5469;;;;
2021/09/04 04:40:22;;;;;;;9.4;6.7;;;;;;;12.46;92.72363;938.5571;;;;
2021/09/04 04:42:48;;;;;;;7.8;5.8;;;;;;;12.36;93.19531;938.5709;;;;
2021/09/04 04:47:39;;;;;;;6.7;5.5;;;;;;;12.26;94.46973;938.5778;;;;
2021/09/04 04:50:43;;;;;;;9.3;6;;;;;;;12.29;94.89746;938.6074;;;;
2021/09/04 04:53:09;;;;;;;8;5.8;;;;;;;12.34;94.56543;938.6475;;;;
2021/09/04 04:55:34;;;;;;;8.8;6.1;;;;;;;12.37;94.21582;938.6372;;;;
2021/09/04 04:57:59;;;;;;;7;5.6;;;;;;;12.44;93.63672;938.6361;;;;
2021/09/04 05:00:24;;;;;;;7.1;5.9;;;;;;;12.48;93.01172;938.617;;;;
2021/09/04 05:03:03;;;;;;;6.7;5.4;;;;;;;12.48;93.10352;938.6498;;;;
2021/09/04 05:05:28;;;;;;;8.5;5.7;;;;;;;12.39;93.39453;938.6844;;;;
2021/09/04 05:07:53;;;;;;;9.2;6.2;;;;;;;12.22;94.87207;938.6847;;;;
2021/09/04 05:10:40;;;;;;;9.3;7.5;;;;;;;12.14;95.66797;938.6816;;;;
2021/09/04 05:13:06;;;;;;;6.8;5.9;;;;;;;12.24;95.30078;938.6552;;;;
2021/09/04 05:15:31;;;;;;;9.3;6;;;;;;;12.36;94.64941;938.6603;;;;
2021/09/04 05:17:58;;;;;;;9;5.7;;;;;;;12.5;93.85547;938.7018;;;;
2021/09/04 05:20:23;;;;;;;7.4;5.7;;;;;;;12.59;93.34668;938.6533;;;;
2021/09/04 05:22:50;;;;;;;9.6;5.8;;;;;;;12.7;92.99121;938.6258;;;;
2021/09/04 05:25:15;;;;;;;7.8;5.5;;;;;;;12.69;93.51758;938.6514;;;;
2021/09/04 05:27:41;;;;;;;8.3;5.8;;;;;;;12.78;92.49023;938.677;;;;
2021/09/04 05:30:06;;;;;;;7.4;5.5;;;;;;;12.84;92.14844;938.6855;;;;
2021/09/04 05:32:31;;;;;;;7.6;5.4;;;;;;;12.72;93.07813;938.6522;;;;
2021/09/04 05:34:59;;;;;;;6.8;5.3;;;;;;;12.69;93.49512;938.6273;;;;
2021/09/04 05:37:21;;;;;;;7.5;6.1;;;;;;;12.75;93.36816;938.582;;;;
2021/09/04 05:40:14;;;;;;;8.2;6.2;;;;;;;12.9;93.44727;938.6256;;;;
2021/09/04 05:42:40;;;;;;;8.3;6.3;;;;;;;13.62;91.15332;938.6204;;;;
2021/09/04 05:45:05;;;;;;;8.5;5.1;;;;;;;14.37;87.19629;938.6902;;;;
2021/09/04 05:47:30;;;;;;;6.5;5;;;;;;;14.76;84.03613;938.6674;;;;
2021/09/04 05:49:56;;;;;;;9;5.7;;;;;;;14.69;84.7959;938.6245;;;;
2021/09/04 05:52:54;;;;;;;6.1;5.3;;;;;;;14.51;84.93164;938.6613;;;;
2021/09/04 05:55:20;;;;;;;6.3;5.4;;;;;;;14.29;86.88184;938.6096;;;;
2021/09/04 05:57:45;;;;;;;7.2;5.5;;;;;;;14.25;87.69238;938.565;;;;
2021/09/04 06:00:12;;;;;;;6.3;5;;;;;;;14.17;88.80469;938.617;;;;
2021/09/04 06:02:37;;;;;;;7.1;4.8;;;;;;;14.35;88.24219;938.6878;;;;
2021/09/04 06:05:02;;;;;;;6.4;5.2;;;;;;;14.66;87.35938;938.6472;;;;
2021/09/04 06:07:27;;;;;;;7.4;4.8;;;;;;;14.9;85.79199;938.6475;;;;
2021/09/04 06:09:53;;;;;;;6.3;4.7;;;;;;;15.3;84.32324;938.63;;;;
2021/09/04 06:12:18;;;;;;;6.4;4.6;;;;;;;16.59;78.59961;938.6247;;;;
2021/09/04 06:14:53;;;;;;;5.7;4.5;;;;;;;17.66;74.37109;938.6298;;;;
2021/09/04 06:17:19;;;;;;;4.5;3.9;;;;;;;20.3;62.69727;938.6345;;;;
2021/09/04 06:19:44;;;;;;;5.7;3.9;;;;;;;21.18;59.3584;938.5627;;;;
2021/09/04 06:22:09;;;;;;;4.3;3.6;;;;;;;21.87;56.47461;938.6222;;;;
2021/09/04 06:24:35;;;;;;;4.1;3.3;;;;;;;22.41;54.98438;938.6342;;;;
2021/09/04 06:27:00;;;;;;;4.3;3.4;;;;;;;22.98;53.47949;938.6008;;;;
2021/09/04 06:29:26;;;;;;;4.9;3.7;;;;;;;23.65;51.63184;938.5945;;;;
2021/09/04 06:31:55;;;;;;;4.2;3.5;;;;;;;22.74;53.06348;938.567;;;;
2021/09/04 06:34:21;;;;;;;4.3;3.3;;;;;;;22.98;54.06836;938.5689;;;;
2021/09/04 06:36:46;;;;;;;6.1;3.8;;;;;;;23.75;50.7373;938.5383;;;;
2021/09/04 06:39:11;;;;;;;4.8;3.4;;;;;;;24.49;49.54883;938.5597;;;;
2021/09/04 06:41:37;;;;;;;6.3;3.8;;;;;;;22.9;53.48242;938.5207;;;;
2021/09/04 06:44:02;;;;;;;3.9;3.2;;;;;;;22.9;53.96484;938.4372;;;;
2021/09/04 06:46:31;;;;;;;4.1;3.1;;;;;;;24.54;49.2002;938.4011;;;;
2021/09/04 06:48:53;;;;;;;4.8;3.7;;;;;;;26.38;45.01172;938.4608;;;;
2021/09/04 06:51:18;;;;;;;5.4;3.5;;;;;;;27.6;42.8916;938.5042;;;;
2021/09/04 06:53:44;;;;;;;3.8;3;;;;;;;28.29;41.33984;938.4858;;;;
2021/09/04 06:56:14;;;;;;;3.6;3.3;;;;;;;27.25;42.34863;938.5485;;;;
2021/09/04 06:58:38;;;;;;;3.9;3.4;;;;;;;27.54;42.06641;938.5061;;;;
2021/09/04 07:01:03;;;;;;;3.8;3.1;;;;;;;26.27;43.93555;938.4885;;;;
2021/09/04 07:03:28;;;;;;;9.8;3.5;;;;;;;27.79;41.11621;938.491;;;;
2021/09/04 07:05:54;;;;;;;4.2;3.4;;;;;;;28.41;40.48438;938.4924;;;;
2021/09/04 07:08:19;;;;;;;4.2;3.7;;;;;;;28.32;40.12988;938.5349;;;;
2021/09/04 07:10:44;;;;;;;4.1;3.4;;;;;;;27.49;41.58789;938.5283;;;;
2021/09/04 07:13:09;;;;;;;3.9;3.5;;;;;;;27.41;42.67285;938.5812;;;;
2021/09/04 07:15:34;;;;;;;3.8;3.2;;;;;;;25.66;46.27441;938.5486;;;;
2021/09/04 07:17:59;;;;;;;4.8;3.5;;;;;;;25.09;47.82227;938.5931;;;;
2021/09/04 07:20:24;;;;;;;3.9;3.5;;;;;;;24.86;48.20898;938.5739;;;;
2021/09/04 07:22:50;;;;;;;3.9;3.2;;;;;;;25.72;47.15527;938.6014;;;;
2021/09/04 07:25:16;;;;;;;4.7;3.8;;;;;;;25.51;47.13281;938.5972;;;;
2021/09/04 07:28:26;;;;;;;4.5;3.3;;;;;;;25.59;47.21289;938.6061;;;;
2021/09/04 07:30:53;;;;;;;3.7;3.3;;;;;;;25.81;45.72363;938.5911;;;;
2021/09/04 07:33:18;;;;;;;4.6;3.3;;;;;;;25.53;46.52051;938.5734;;;;
2021/09/04 07:35:44;;;;;;;3.8;3.3;;;;;;;25.58;46.62207;938.6522;;;;
2021/09/04 07:38:09;;;;;;;4.9;3.4;;;;;;;26.29;45.75977;938.6997;;;;
2021/09/04 07:40:35;;;;;;;3.5;3.2;;;;;;;26.82;45.26855;938.6689;;;;
2021/09/04 07:43:02;;;;;;;4.7;3.8;;;;;;;27.01;43.53418;938.6749;;;;
2021/09/04 07:45:26;;;;;;;3.5;3.2;;;;;;;27.9;41.69629;938.6561;;;;
2021/09/04 07:48:06;;;;;;;4;3.6;;;;;;;27.39;45.00684;938.6334;;;;
2021/09/04 07:50:32;;;;;;;4.4;3.7;;;;;;;26.96;45.94727;938.6116;;;;
2021/09/04 07:52:57;;;;;;;4.7;3.5;;;;;;;27.79;45.41406;938.6398;;;;
2021/09/04 07:55:23;;;;;;;3.2;2.9;;;;;;;26.47;47.3291;938.6305;;;;
2021/09/04 07:57:48;;;;;;;5.8;3.6;;;;;;;26.44;45.94141;938.6547;;;;
2021/09/04 08:00:13;;;;;;;3.5;3.2;;;;;;;27.44;45.33301;938.6103;;;;
2021/09/04 08:02:38;;;;;;;3.3;3;;;;;;;29.57;39.77734;938.5634;;;;
2021/09/04 08:05:03;;;;;;;3.7;3.1;;;;;;;29.69;40.24023;938.5742;;;;
2021/09/04 08:07:29;;;;;;;4.1;3.4;;;;;;;29.34;40.1748;938.6042;;;;
2021/09/04 08:09:54;;;;;;;4.2;3.6;;;;;;;27.5;44.43652;938.5751;;;;
2021/09/04 08:12:19;;;;;;;5.4;3.7;;;;;;;29.48;40.47363;938.5699;;;;
2021/09/04 08:14:44;;;;;;;3.9;3.5;;;;;;;29.15;41.28906;938.5826;;;;
2021/09/04 08:17:09;;;;;;;4;3.6;;;;;;;28.38;42.32324;938.5878;;;;
2021/09/04 08:19:34;;;;;;;4;3.6;;;;;;;28.07;42.21094;938.6047;;;;
2021/09/04 08:22:01;;;;;;;3.5;3.2;;;;;;;29.45;40.87598;938.6463;;;;
2021/09/04 08:24:25;;;;;;;3.8;3.3;;;;;;;29.17;41.49414;938.6877;;;;
2021/09/04 08:26:50;;;;;;;4;3.6;;;;;;;27.75;44.47266;938.7115;;;;
2021/09/04 08:29:15;;;;;;;3.8;3.3;;;;;;;29.7;40.30078;938.6434;;;;
2021/09/04 08:31:40;;;;;;;3.8;3.2;;;;;;;30.39;37.66309;938.6517;;;;
2021/09/04 08:34:05;;;;;;;3.8;3.5;;;;;;;30.94;37.50586;938.6483;;;;
2021/09/04 08:36:31;;;;;;;3.4;3.1;;;;;;;31.41;35.13965;938.6481;;;;
2021/09/04 08:39:29;;;;;;;4.2;3.8;;;;;;;29.71;38.2998;938.5999;;;;
2021/09/04 08:41:54;;;;;;;3.3;3;;;;;;;31.57;35.84668;938.6443;;;;
2021/09/04 08:44:19;;;;;;;3.9;3.5;;;;;;;30.69;37.23535;938.6417;;;;
2021/09/04 08:46:44;;;;;;;3.9;3.3;;;;;;;30.93;36.15527;938.6891;;;;
2021/09/04 08:49:11;;;;;;;4.7;3.4;;;;;;;30.41;38.15527;938.6205;;;;
2021/09/04 08:51:36;;;;;;;4.1;3.6;;;;;;;31.25;35.13965;938.66;;;;
2021/09/04 08:54:02;;;;;;;5.2;3.5;;;;;;;30.46;38.68457;938.6555;;;;
2021/09/04 08:56:27;;;;;;;4.7;3.4;;;;;;;29.16;39.2168;938.6033;;;;
2021/09/04 08:59:23;;;;;;;3.9;3.4;;;;;;;30.81;37.30566;938.6482;;;;
2021/09/04 09:01:49;;;;;;;3.8;3.3;;;;;;;31.02;38.99609;938.6972;;;;
2021/09/04 09:04:14;;;;;;;4.8;3.7;;;;;;;29.65;40.18945;938.608;;;;
2021/09/04 09:06:39;;;;;;;4;3.6;;;;;;;28.84;41.5332;938.6572;;;;
2021/09/04 09:09:04;;;;;;;4.5;3.9;;;;;;;28.86;42.58398;938.6114;;;;
2021/09/04 09:11:29;;;;;;;4.2;3.8;;;;;;;29.15;43.11133;938.5531;;;;
2021/09/04 09:13:54;;;;;;;4.5;3.5;;;;;;;29.46;40.4707;938.5033;;;;
2021/09/04 09:16:38;;;;;;;5.8;3.8;;;;;;;28.73;44.81836;938.5094;;;;
2021/09/04 09:19:04;;;;;;;4;3.6;;;;;;;29.15;42.75391;938.4363;;;;
2021/09/04 09:21:32;;;;;;;4.3;3.6;;;;;;;30.38;39.49023;938.4141;;;;
2021/09/04 09:23:55;;;;;;;4.2;3.8;;;;;;;28.45;42.6748;938.4194;;;;
2021/09/04 09:26:20;;;;;;;4;3.5;;;;;;;27.25;48.3125;938.3819;;;;
2021/09/04 09:28:45;;;;;;;4.2;3.5;;;;;;;26.98;49.08984;938.3182;;;;
2021/09/04 09:31:39;;;;;;;4.9;3.6;;;;;;;28.14;44.71289;938.2992;;;;
2021/09/04 09:34:05;;;;;;;4.2;3.6;;;;;;;26.74;49.93945;938.3209;;;;
2021/09/04 09:36:30;;;;;;;4.4;3.6;;;;;;;27.28;46.92773;938.3436;;;;
2021/09/04 09:38:55;;;;;;;4.2;3.7;;;;;;;25.42;52.91211;938.3186;;;;
2021/09/04 09:41:20;;;;;;;4.5;3.6;;;;;;;25.1;54.49023;938.35;;;;
2021/09/04 09:43:45;;;;;;;4.8;3.9;;;;;;;23.93;56.33789;938.288;;;;
2021/09/04 09:46:10;;;;;;;5;3.8;;;;;;;23.77;58.81152;938.2278;;;;
2021/09/04 09:48:37;;;;;;;5.1;3.9;;;;;;;24.85;53.7168;938.2437;;;;
2021/09/04 09:51:59;;;;;;;5;4.1;;;;;;;23.99;59.16992;938.2645;;;;
2021/09/04 09:54:24;;;;;;;5.4;4;;;;;;;23.96;58.67188;938.1916;;;;
2021/09/04 09:56:49;;;;;;;5.9;4.4;;;;;;;23.55;61.3457;938.2039;;;;
2021/09/04 09:59:14;;;;;;;5.1;4.3;;;;;;;23.17;60.63672;938.1906;;;;
2021/09/04 10:01:39;;;;;;;5.6;4.3;;;;;;;23.12;61.27539;938.174;;;;
2021/09/04 10:04:04;;;;;;;5.5;4;;;;;;;23.61;58.51953;938.1666;;;;
2021/09/04 10:06:30;;;;;;;6.6;4.5;;;;;;;23.64;59.22949;938.1731;;;;
2021/09/04 10:08:55;;;;;;;5.9;4.3;;;;;;;23.96;57.45898;938.1656;;;;
2021/09/04 10:11:20;;;;;;;5.1;4.3;;;;;;;24;57.40625;938.0533;;;;
2021/09/04 10:13:46;;;;;;;5.4;4.1;;;;;;;24.36;57.60645;938.1002;;;;
2021/09/04 10:16:11;;;;;;;5.3;3.8;;;;;;;24.54;56.19043;938.0747;;;;
2021/09/04 10:18:37;;;;;;;5.3;4;;;;;;;24.49;57.49121;937.9933;;;;
2021/09/04 10:21:02;;;;;;;4.6;3.8;;;;;;;25.26;54.07227;937.9719;;;;
2021/09/04 10:23:27;;;;;;;4.8;4.2;;;;;;;25.25;54.94531;937.9412;;;;
2021/09/04 10:25:52;;;;;;;5.2;4.3;;;;;;;26.12;51.59863;938.0313;;;;
2021/09/04 10:28:18;;;;;;;5.1;4.1;;;;;;;27.07;48.75586;938.0565;;;;
2021/09/04 10:30:45;;;;;;;5.6;4.3;;;;;;;26.93;50.74316;938.0087;;;;
2021/09/04 10:33:11;;;;;;;4.7;4;;;;;;;27.62;48.66113;937.9886;;;;
2021/09/04 10:35:36;;;;;;;4.2;3.7;;;;;;;27.87;46.8125;937.9202;;;;
2021/09/04 10:38:01;;;;;;;4.5;3.7;;;;;;;28.19;49.7334;937.8983;;;;
2021/09/04 10:40:26;;;;;;;4.9;3.7;;;;;;;28.11;46.94336;937.9012;;;;
2021/09/04 10:42:51;;;;;;;4.6;3.4;;;;;;;27.71;47.21094;937.9297;;;;
2021/09/04 10:45:17;;;;;;;4.9;3.9;;;;;;;28.12;46.70703;937.8999;;;;
2021/09/04 10:47:44;;;;;;;5.2;3.6;;;;;;;29.08;45.46191;937.8884;;;;
2021/09/04 10:51:13;;;;;;;4.3;3.7;;;;;;;29.83;41.94824;937.8161;;;;
2021/09/04 10:53:39;;;;;;;4.7;3.6;;;;;;;29.88;42.90625;937.8433;;;;
2021/09/04 10:56:04;;;;;;;4.8;3.9;;;;;;;30.94;40.05371;937.8187;;;;
2021/09/04 10:58:29;;;;;;;4.9;3.6;;;;;;;31.12;40.17773;937.8028;;;;
2021/09/04 11:00:55;;;;;;;4.2;3.8;;;;;;;30.9;39.92969;937.7381;;;;
2021/09/04 11:03:20;;;;;;;3.9;3.5;;;;;;;31;40.7041;937.6905;;;;
2021/09/04 11:05:46;;;;;;;4.9;3.6;;;;;;;30.36;39.71484;937.6578;;;;
2021/09/04 11:08:11;;;;;;;5;3.9;;;;;;;29.4;42.74219;937.5554;;;;
2021/09/04 11:10:36;;;;;;;4.9;3.8;;;;;;;29.01;44.46582;937.6144;;;;
2021/09/04 11:13:01;;;;;;;4.9;3.7;;;;;;;29.42;43.54102;937.6174;;;;
2021/09/04 11:15:26;;;;;;;3.9;3.3;;;;;;;30.38;41.1748;937.5985;;;;
2021/09/04 11:17:51;;;;;;;3.9;3.5;;;;;;;29.49;42.79785;937.5687;;;;
2021/09/04 11:20:16;;;;;;;7.4;3.9;;;;;;;29.46;44.49902;937.5317;;;;
2021/09/04 11:23:35;;;;;;;5.1;3.9;;;;;;;28.53;47.16504;937.6042;;;;
2021/09/04 11:26:00;;;;;;;4.3;3.9;;;;;;;28.14;49.65625;937.5103;;;;
2021/09/04 11:28:25;;;;;;;4.8;3.8;;;;;;;28.89;45.43066;937.4423;;;;
2021/09/04 11:30:51;;;;;;;4.9;3.8;;;;;;;28.32;46.4541;937.5364;;;;
2021/09/04 11:33:16;;;;;;;4.6;3.9;;;;;;;28.38;47.35352;937.5465;;;;
2021/09/04 11:35:42;;;;;;;6.3;4;;;;;;;28.47;45.7207;937.4252;;;;
2021/09/04 11:38:07;;;;;;;4.1;3.7;;;;;;;28.39;46.10547;937.4302;;;;
2021/09/04 11:40:36;;;;;;;4.7;3.9;;;;;;;28.13;47.13672;937.5069;;;;
2021/09/04 11:43:01;;;;;;;8.8;4.1;;;;;;;28.32;47.22754;937.5401;;;;
2021/09/04 11:45:59;;;;;;;4.4;3.5;;;;;;;28.81;45.13672;937.4328;;;;
2021/09/04 11:48:24;;;;;;;5.9;3.7;;;;;;;29.78;42.31152;937.4747;;;;
2021/09/04 11:51:00;;;;;;;4.3;3.9;;;;;;;30.34;40.15527;937.3897;;;;
2021/09/04 11:53:25;;;;;;;4.1;3.7;;;;;;;30.67;39.64746;937.3912;;;;
2021/09/04 11:55:51;;;;;;;4.1;3.7;;;;;;;30.55;39.39844;937.3975;;;;
2021/09/04 11:58:19;;;;;;;4;3.6;;;;;;;30.9;40.56348;937.3812;;;;
2021/09/04 12:00:44;;;;;;;4.7;3.6;;;;;;;29.55;44.00684;937.3215;;;;
2021/09/04 12:03:09;;;;;;;4.5;3.4;;;;;;;29.29;42.80273;937.3244;;;;
2021/09/04 12:05:34;;;;;;;4.2;3.5;;;;;;;31.01;39.61719;937.3768;;;;
2021/09/04 12:07:59;;;;;;;4.6;4;;;;;;;30.93;39.41895;937.3859;;;;
2021/09/04 12:10:25;;;;;;;4.5;3.7;;;;;;;31.41;38.49121;937.3901;;;;
2021/09/04 12:12:50;;;;;;;3.7;3.3;;;;;;;30.46;41.7793;937.3674;;;;
2021/09/04 12:15:15;;;;;;;6.3;3.9;;;;;;;30.66;41.17578;937.3028;;;;
2021/09/04 12:18:38;;;;;;;4.4;3.6;;;;;;;30.5;40.5166;937.3189;;;;
2021/09/04 12:21:15;;;;;;;4.9;4;;;;;;;31.16;37.64551;937.3506;;;;
2021/09/04 12:23:40;;;;;;;3.9;3.5;;;;;;;30.64;39.58398;937.3713;;;;
2021/09/04 12:27:03;;;;;;;4.2;3.8;;;;;;;30.56;39.7207;937.3162;;;;
2021/09/04 12:29:28;;;;;;;4.5;3.8;;;;;;;29.97;41.16016;937.3842;;;;
2021/09/04 12:31:53;;;;;;;3.9;3.5;;;;;;;30.97;39.1709;937.3593;;;;
2021/09/04 12:34:20;;;;;;;4.5;3.8;;;;;;;29.81;41.0625;937.3748;;;;
2021/09/04 12:36:45;;;;;;;4.5;3.8;;;;;;;29.89;41.27246;937.348;;;;
2021/09/04 12:39:10;;;;;;;5.1;3.8;;;;;;;30.22;40.25195;937.3505;;;;
2021/09/04 12:41:37;;;;;;;3.7;3.4;;;;;;;30.14;41.16406;937.3784;;;;
2021/09/04 12:44:02;;;;;;;4.1;3.6;;;;;;;30.09;40.0625;937.3798;;;;
2021/09/04 12:46:27;;;;;;;3.9;3.5;;;;;;;31.44;37.62109;937.3322;;;;
2021/09/04 12:48:53;;;;;;;5.4;3.7;;;;;;;30.58;39.29297;937.3566;;;;
2021/09/04 12:51:18;;;;;;;4.2;3.6;;;;;;;30.64;39.90723;937.2645;;;;
2021/09/04 12:53:43;;;;;;;4.4;4;;;;;;;29.95;42.00586;937.2975;;;;
2021/09/04 12:56:08;;;;;;;3.8;3.4;;;;;;;29.21;42.59277;937.2628;;;;
2021/09/04 12:58:33;;;;;;;4;3.6;;;;;;;29.56;41.50488;937.3077;;;;
2021/09/04 13:00:59;;;;;;;5;3.9;;;;;;;29.82;40.63477;937.2871;;;;
2021/09/04 13:03:24;;;;;;;3.5;3.2;;;;;;;30.59;38.63672;937.3795;;;;
2021/09/04 13:05:49;;;;;;;4;3.6;;;;;;;31.66;36.87109;937.2267;;;;
2021/09/04 13:08:14;;;;;;;4.4;3.6;;;;;;;32.19;34.32617;937.2488;;;;
2021/09/04 13:10:39;;;;;;;5.4;3.5;;;;;;;31.66;36.51172;937.2563;;;;
2021/09/04 13:13:04;;;;;;;3.8;3.1;;;;;;;31.8;35.64941;937.2892;;;;
2021/09/04 13:15:30;;;;;;;5;3.9;;;;;;;31.21;36.38086;937.2614;;;;
2021/09/04 13:18:07;;;;;;;4.4;3.7;;;;;;;31.05;37.875;937.2857;;;;
2021/09/04 13:20:31;;;;;;;4.4;3.7;;;;;;;29.94;38.95117;937.225;;;;
2021/09/04 13:22:56;;;;;;;4.2;3.6;;;;;;;29.73;38.58691;937.1208;;;;
2021/09/04 13:25:21;;;;;;;4.6;3.5;;;;;;;29.53;40.56055;937.1161;;;;
2021/09/04 13:27:48;;;;;;;4.7;3.8;;;;;;;29.39;42.24023;937.1523;;;;
2021/09/04 13:30:33;;;;;;;4.7;3.5;;;;;;;29.21;41.12695;937.0734;;;;
2021/09/04 13:32:59;;;;;;;5.3;4.3;;;;;;;29.74;38.65918;937.13;;;;
2021/09/04 13:37:56;;;;;;;4.1;3.2;;;;;;;28.14;42.53906;937.0936;;;;
2021/09/04 13:40:21;;;;;;;4.5;3.7;;;;;;;28.09;42.22559;937.0499;;;;
2021/09/04 13:42:46;;;;;;;4.2;3.4;;;;;;;27.55;42.92188;937.0952;;;;
2021/09/04 13:45:11;;;;;;;3.7;3.3;;;;;;;27.4;43.80957;937.0287;;;;
2021/09/04 13:47:37;;;;;;;4.9;3.6;;;;;;;27.02;45.26563;937.0614;;;;
2021/09/04 13:50:02;;;;;;;6;3.8;;;;;;;26.78;46.08301;937.0735;;;;
2021/09/04 13:52:27;;;;;;;3.8;3.4;;;;;;;26.95;45.02246;937.055;;;;
2021/09/04 13:54:52;;;;;;;5.8;3.3;;;;;;;26.51;44.74023;937.0209;;;;
2021/09/04 13:57:18;;;;;;;3.8;3.3;;;;;;;26.2;46.29492;937.0433;;;;
2021/09/04 13:59:43;;;;;;;4.3;3.5;;;;;;;26.34;46.57031;937.0654;;;;
2021/09/04 14:02:08;;;;;;;5;4;;;;;;;26.22;45.68262;937.0142;;;;
2021/09/04 14:04:33;;;;;;;4.4;3.9;;;;;;;26.45;45.66992;937.1002;;;;
2021/09/04 14:06:59;;;;;;;3.9;3.5;;;;;;;25.84;48.45703;937.1286;;;;
2021/09/04 14:09:24;;;;;;;4.6;3.8;;;;;;;25.81;48.55957;937.1147;;;;
2021/09/04 14:11:49;;;;;;;3.4;3;;;;;;;26.06;47.09668;937.1177;;;;
2021/09/04 14:14:19;;;;;;;4.7;3.6;;;;;;;26.02;45.99316;937.1049;;;;
2021/09/04 14:16:44;;;;;;;3.6;3.3;;;;;;;26.19;46.53223;937.1121;;;;
2021/09/04 14:19:09;;;;;;;4.8;3.7;;;;;;;26.19;46.40039;937.0576;;;;
2021/09/04 14:21:34;;;;;;;5.1;3.9;;;;;;;26.3;46.05664;937.0839;;;;
2021/09/04 14:24:00;;;;;;;4.1;3.5;;;;;;;26.41;45.91406;937.0243;;;;
2021/09/04 14:26:25;;;;;;;3.8;3.4;;;;;;;26.31;45.60938;937.0661;;;;
2021/09/04 14:28:51;;;;;;;4.3;3.6;;;;;;;26.11;45.84863;937.0217;;;;
2021/09/04 14:31:16;;;;;;;4.4;3.8;;;;;;;25.53;46.69922;937.0115;;;;
2021/09/04 14:33:42;;;;;;;4.2;3.3;;;;;;;25.73;47.02637;937.0446;;;;
2021/09/04 14:36:07;;;;;;;5.1;3.5;;;;;;;25.48;48.05176;936.9767;;;;
2021/09/04 14:38:32;;;;;;;4;3.5;;;;;;;25.51;47.28711;936.9777;;;;
2021/09/04 14:40:57;;;;;;;4.1;3.5;;;;;;;25.71;46.72949;936.9695;;;;
2021/09/04 14:43:22;;;;;;;4.2;3.5;;;;;;;25.47;47.56641;936.9739;;;;
2021/09/04 14:45:48;;;;;;;3.9;3.2;;;;;;;25.6;47.40332;937.0331;;;;
2021/09/04 14:48:14;;;;;;;5.2;3.5;;;;;;;25.71;46.62305;936.9938;;;;
2021/09/04 14:50:38;;;;;;;3.7;3.3;;;;;;;25.37;47.69727;937.0012;;;;
2021/09/04 14:53:04;;;;;;;4.9;3.7;;;;;;;25.39;46.24707;936.9839;;;;
2021/09/04 14:55:29;;;;;;;3.8;3.2;;;;;;;25.34;46.28906;937.0583;;;;
2021/09/04 14:57:54;;;;;;;4.7;3.7;;;;;;;25.23;46.93945;937.054;;;;
2021/09/04 15:00:32;;;;;;;4.7;3.3;;;;;;;25.02;46.2793;937.0613;;;;
2021/09/04 15:02:57;;;;;;;3.9;3.3;;;;;;;24.88;46.71387;937.0396;;;;
2021/09/04 15:05:22;;;;;;;4.5;3.6;;;;;;;24.93;47.04883;937.0947;;;;
2021/09/04 15:08:09;;;;;;;4.7;3.4;;;;;;;24.82;46.88379;937.0441;;;;
2021/09/04 15:10:51;;;;;;;4.9;3.4;;;;;;;24.5;47.91113;937.0457;;;;
2021/09/04 15:13:16;;;;;;;3.9;3.5;;;;;;;24.41;48.17285;937.0307;;;;
2021/09/04 15:15:41;;;;;;;3.7;3.1;;;;;;;24.29;49.71387;937.0584;;;;
2021/09/04 15:18:06;;;;;;;4.5;3.6;;;;;;;24.33;49.31836;937.0151;;;;
2021/09/04 15:20:31;;;;;;;3.8;3.4;;;;;;;24.33;48.4834;936.9661;;;;
2021/09/04 15:22:59;;;;;;;4;3.4;;;;;;;24.26;48.45117;936.9534;;;;
2021/09/04 15:25:22;;;;;;;3.8;3.4;;;;;;;23.8;49.76563;936.9556;;;;
2021/09/04 15:27:47;;;;;;;4.5;3.4;;;;;;;23.6;51.06152;936.949;;;;
2021/09/04 15:30:12;;;;;;;3.8;3.3;;;;;;;23.6;50.47266;936.9962;;;;
2021/09/04 15:32:37;;;;;;;3.7;3.3;;;;;;;23.65;49.44336;937.0106;;;;
2021/09/04 15:35:02;;;;;;;4.1;3.1;;;;;;;23.61;48.74609;936.9958;;;;
2021/09/04 15:37:27;;;;;;;5.1;3.2;;;;;;;23.55;48.92578;937.0012;;;;
2021/09/04 15:39:52;;;;;;;5.4;3.4;;;;;;;23.76;49.51367;937.0605;;;;
2021/09/04 15:42:18;;;;;;;3.6;3.2;;;;;;;23.91;49.02539;937.0726;;;;
2021/09/04 15:44:43;;;;;;;3.8;3.2;;;;;;;23.82;48.60254;937.0815;;;;
2021/09/04 15:47:08;;;;;;;3.9;3.2;;;;;;;23.86;48.25488;937.0101;;;;